createdAt,value
2022-11-24T00:00:51.230Z,98606.97
2022-11-24T00:03:18.642Z,98624.13
2022-11-24T00:05:46.434Z,98635.81
2022-11-24T00:08:13.199Z,98633.00
2022-11-24T00:10:39.759Z,98609.50
2022-11-24T00:13:06.637Z,98637.66
2022-11-24T00:15:35.156Z,98608.94
2022-11-24T00:18:01.806Z,98624.34
2022-11-24T00:20:28.382Z,98644.81
2022-11-24T00:22:55.473Z,98639.00
2022-11-24T00:25:22.324Z,98634.56
2022-11-24T00:27:49.136Z,98638.34
2022-11-24T00:30:16.487Z,98640.09
2022-11-24T00:32:44.487Z,98640.84
2022-11-24T00:35:11.128Z,98626.44
2022-11-24T00:37:37.943Z,98637.59
2022-11-24T00:40:05.718Z,98636.22
2022-11-24T00:42:32.173Z,98632.94
2022-11-24T00:44:58.681Z,98644.63
2022-11-24T00:47:25.221Z,98641.94
2022-11-24T00:49:53.328Z,98647.69
2022-11-24T00:52:19.787Z,98650.22
2022-11-24T00:54:46.426Z,98647.75
2022-11-24T00:57:12.888Z,98659.84
2022-11-24T00:59:39.599Z,98655.19
2022-11-24T01:02:06.158Z,98654.56
2022-11-24T01:04:33.001Z,98661.75
2022-11-24T01:07:01.029Z,98656.75
2022-11-24T01:09:27.523Z,98660.91
2022-11-24T01:11:54.485Z,98660.69
2022-11-24T01:14:22.550Z,98668.03
2022-11-24T01:16:49.294Z,98673.44
2022-11-24T01:19:16.309Z,98677.09
2022-11-24T01:21:42.966Z,98674.19
2022-11-24T01:24:11.729Z,98675.78
2022-11-24T01:26:38.784Z,98676.84
2022-11-24T01:29:05.809Z,98677.25
2022-11-24T01:31:32.599Z,98676.88
2022-11-24T01:33:59.317Z,98685.00
2022-11-24T01:36:25.796Z,98682.28
2022-11-24T01:38:52.242Z,98687.00
2022-11-24T01:41:21.996Z,98683.72
2022-11-24T01:43:49.888Z,98689.59
2022-11-24T01:46:22.533Z,98683.22
2022-11-24T01:48:53.328Z,98686.78
2022-11-24T01:51:23.794Z,98682.50
2022-11-24T01:53:53.704Z,98690.16
2022-11-24T01:56:21.655Z,98694.41
2022-11-24T01:58:49.981Z,98703.03
2022-11-24T02:01:16.615Z,98700.69
2022-11-24T02:03:45.648Z,98697.84
2022-11-24T02:06:14.132Z,98697.78
2022-11-24T02:08:45.589Z,98696.16
2022-11-24T02:11:12.443Z,98695.88
2022-11-24T02:13:42.252Z,98698.50
2022-11-24T02:16:11.773Z,98703.72
2022-11-24T02:18:39.636Z,98709.50
2022-11-24T02:21:07.329Z,98706.06
2022-11-24T02:23:42.621Z,98708.50
2022-11-24T02:26:17.446Z,98709.22
2022-11-24T02:28:45.986Z,98707.41
2022-11-24T02:31:13.406Z,98717.53
2022-11-24T02:33:40.670Z,98715.81
2022-11-24T02:36:07.655Z,98715.78
2022-11-24T02:38:35.722Z,98717.16
2022-11-24T02:41:05.805Z,98713.94
2022-11-24T02:43:35.605Z,98719.88
2022-11-24T02:46:03.516Z,98712.22
2022-11-24T02:48:30.431Z,98711.88
2022-11-24T02:50:56.894Z,98717.03
2022-11-24T02:53:23.720Z,98714.53
2022-11-24T02:55:50.209Z,98717.38
2022-11-24T02:58:17.044Z,98720.28
2022-11-24T03:00:43.682Z,98712.69
2022-11-24T03:03:11.681Z,98716.22
2022-11-24T03:05:38.218Z,98720.22
2022-11-24T03:08:04.939Z,98722.06
2022-11-24T03:10:31.746Z,98719.78
2022-11-24T03:12:58.450Z,98720.84
2022-11-24T03:15:24.907Z,98727.19
2022-11-24T03:17:54.623Z,98716.44
2022-11-24T03:20:22.524Z,98731.97
2022-11-24T03:22:49.065Z,98722.97
2022-11-24T03:25:15.819Z,98726.88
2022-11-24T03:27:42.332Z,98718.22
2022-11-24T03:30:09.999Z,98733.75
2022-11-24T03:32:36.528Z,98733.56
2022-11-24T03:35:03.621Z,98739.16
2022-11-24T03:37:31.760Z,98736.97
2022-11-24T03:39:58.349Z,98741.25
2022-11-24T03:42:24.863Z,98740.69
2022-11-24T03:44:51.334Z,98746.00
2022-11-24T03:47:17.817Z,98752.31
2022-11-24T03:49:44.279Z,98744.59
2022-11-24T03:52:10.925Z,98744.72
2022-11-24T03:54:38.835Z,98747.81
2022-11-24T03:57:05.312Z,98749.03
2022-11-24T03:59:31.796Z,98739.22
2022-11-24T04:01:58.468Z,98746.91
2022-11-24T04:04:25.104Z,98749.28
2022-11-24T04:06:51.548Z,98748.50
2022-11-24T04:09:18.112Z,98760.69
2022-11-24T04:11:46.051Z,98759.69
2022-11-24T04:14:13.925Z,98762.66
2022-11-24T04:16:40.676Z,98764.03
2022-11-24T04:19:07.340Z,98763.66
2022-11-24T04:21:34.098Z,98760.38
2022-11-24T04:24:00.579Z,98767.66
2022-11-24T04:26:27.209Z,98768.53
2022-11-24T04:28:55.066Z,98766.66
2022-11-24T04:31:21.620Z,98768.41
2022-11-24T04:33:48.213Z,98770.50
2022-11-24T04:36:14.707Z,98776.38
2022-11-24T04:39:25.472Z,98776.56
2022-11-24T04:41:27.704Z,98778.91
2022-11-24T04:43:55.646Z,98781.75
2022-11-24T04:46:22.176Z,98784.81
2022-11-24T04:48:48.710Z,98781.50
2022-11-24T04:51:15.689Z,98773.47
2022-11-24T04:53:42.198Z,98787.94
2022-11-24T04:56:09.090Z,98782.56
2022-11-24T04:58:36.013Z,98788.41
2022-11-24T05:01:06.703Z,98789.84
2022-11-24T05:03:33.235Z,98795.19
2022-11-24T05:05:59.781Z,98797.00
2022-11-24T05:08:29.275Z,98795.00
2022-11-24T05:10:57.819Z,98787.53
2022-11-24T05:13:24.482Z,98802.25
2022-11-24T05:15:51.268Z,98804.88
2022-11-24T05:18:19.472Z,98811.06
2022-11-24T05:20:45.988Z,98818.00
2022-11-24T05:23:12.677Z,98825.38
2022-11-24T05:25:40.539Z,98813.84
2022-11-24T05:28:10.170Z,98821.44
2022-11-24T05:30:39.859Z,98812.66
2022-11-24T05:33:07.491Z,98819.47
2022-11-24T05:35:36.174Z,98825.38
2022-11-24T05:38:12.076Z,98829.84
2022-11-24T05:40:38.556Z,98835.41
2022-11-24T05:43:05.072Z,98834.63
2022-11-24T05:45:31.600Z,98838.72
2022-11-24T05:48:04.931Z,98845.16
2022-11-24T05:50:31.457Z,98848.38
2022-11-24T05:53:03.590Z,98849.09
2022-11-24T05:55:33.275Z,98853.59
2022-11-24T05:58:00.518Z,98866.94
2022-11-24T06:00:29.228Z,98860.59
2022-11-24T06:02:57.496Z,98867.19
2022-11-24T06:05:24.742Z,98872.41
2022-11-24T06:07:51.370Z,98870.38
2022-11-24T06:10:21.306Z,98873.41
2022-11-24T06:12:50.202Z,98869.53
2022-11-24T06:15:19.857Z,98873.47
2022-11-24T06:21:24.245Z,98895.25
2022-11-24T06:23:51.047Z,98885.91
2022-11-24T06:26:18.972Z,98890.97
2022-11-24T06:28:45.460Z,98896.03
2022-11-24T06:31:12.115Z,98896.91
2022-11-24T06:33:38.785Z,98902.44
2022-11-24T06:36:07.387Z,98898.03
2022-11-24T06:38:35.413Z,98914.47
2022-11-24T06:41:03.914Z,98910.94
2022-11-24T06:43:32.381Z,98911.41
2022-11-24T06:45:59.488Z,98917.03
2022-11-24T06:48:26.927Z,98914.69
2022-11-24T06:50:54.320Z,98918.66
2022-11-24T06:53:21.168Z,98923.38
2022-11-24T06:55:47.742Z,98922.94
2022-11-24T06:58:14.356Z,98927.78
2022-11-24T07:00:42.502Z,98922.38
2022-11-24T07:03:14.009Z,98930.47
2022-11-24T07:05:40.535Z,98935.84
2022-11-24T07:08:08.732Z,98942.81
2022-11-24T07:10:38.081Z,98942.28
2022-11-24T07:13:07.415Z,98952.28
2022-11-24T07:15:34.008Z,98961.53
2022-11-24T07:18:02.457Z,98963.78
2022-11-24T07:20:29.080Z,98969.53
2022-11-24T07:22:56.224Z,98980.84
2022-11-24T07:25:22.761Z,98989.22
2022-11-24T07:27:49.268Z,98995.16
2022-11-24T07:30:16.778Z,98990.66
2022-11-24T07:32:43.425Z,99004.00
2022-11-24T07:35:11.250Z,99007.13
2022-11-24T07:37:37.830Z,99001.72
2022-11-24T07:40:05.380Z,99018.78
2022-11-24T07:42:32.012Z,99020.22
2022-11-24T07:44:58.542Z,99024.72
2022-11-24T07:47:25.093Z,99031.63
2022-11-24T07:49:51.556Z,99034.44
2022-11-24T07:52:19.459Z,99037.53
2022-11-24T07:54:45.919Z,99043.91
2022-11-24T07:57:12.400Z,99052.94
2022-11-24T07:59:39.019Z,99057.84
2022-11-24T08:02:05.702Z,99056.00
2022-11-24T08:04:32.626Z,99069.81
2022-11-24T08:06:59.301Z,99073.91
2022-11-24T08:09:27.335Z,99069.94
2022-11-24T08:11:53.809Z,99074.69
2022-11-24T08:14:20.437Z,99073.13
2022-11-24T08:16:47.080Z,99081.03
2022-11-24T08:19:13.632Z,99074.06
2022-11-24T08:21:40.182Z,99088.63
2022-11-24T08:24:07.958Z,99104.06
2022-11-24T08:26:36.076Z,99093.63
2022-11-24T08:29:02.581Z,99097.22
2022-11-24T08:31:29.704Z,99094.25
2022-11-24T08:33:56.387Z,99096.59
2022-11-24T08:36:22.982Z,99098.72
2022-11-24T08:38:54.774Z,99095.19
2022-11-24T08:41:25.423Z,99101.63
2022-11-24T08:43:53.493Z,99095.31
2022-11-24T08:46:20.409Z,99102.84
2022-11-24T08:48:48.790Z,99112.50
2022-11-24T08:51:17.747Z,99117.44
2022-11-24T08:53:44.385Z,99128.69
2022-11-24T08:56:13.152Z,99126.69
2022-11-24T08:58:40.191Z,99133.03
2022-11-24T09:01:09.794Z,99132.94
2022-11-24T09:03:36.935Z,99142.25
2022-11-24T09:06:04.110Z,99139.53
2022-11-24T09:08:31.687Z,99147.81
2022-11-24T09:11:00.237Z,99153.25
2022-11-24T09:13:26.729Z,99153.63
2022-11-24T09:15:53.274Z,99151.63
2022-11-24T09:18:21.162Z,99160.22
2022-11-24T09:20:47.922Z,99170.19
2022-11-24T09:23:14.420Z,99164.53
2022-11-24T09:25:41.080Z,99165.22
2022-11-24T09:28:07.696Z,99164.06
2022-11-24T09:30:34.192Z,99176.97
2022-11-24T09:33:00.715Z,99163.34
2022-11-24T09:35:28.591Z,99173.75
2022-11-24T09:37:55.104Z,99179.22
2022-11-24T09:40:22.766Z,99184.66
2022-11-24T09:42:59.107Z,99189.09
2022-11-24T09:45:57.482Z,99198.41
2022-11-24T09:48:26.591Z,99194.09
2022-11-24T09:50:57.901Z,99202.72
2022-11-24T09:53:31.721Z,99195.94
2022-11-24T09:56:02.208Z,99203.38
2022-11-24T09:58:38.599Z,99206.50
2022-11-24T10:01:12.547Z,99208.81
2022-11-24T10:03:42.369Z,99214.16
2022-11-24T10:06:20.533Z,99209.94
2022-11-24T10:09:03.139Z,99222.34
2022-11-24T10:11:36.857Z,99222.22
2022-11-24T10:14:41.291Z,99231.50
2022-11-24T10:17:16.191Z,99221.78
2022-11-24T10:19:47.235Z,99231.78
2022-11-24T10:22:30.136Z,99237.38
2022-11-24T10:25:20.840Z,99239.56
2022-11-24T10:27:52.403Z,99237.00
2022-11-24T10:30:21.503Z,99241.22
2022-11-24T10:32:49.623Z,99240.69
2022-11-24T10:35:19.059Z,99254.78
2022-11-24T10:37:57.401Z,99249.09
2022-11-24T10:43:22.590Z,99245.09
2022-11-24T10:45:50.421Z,99256.84
2022-11-24T10:48:22.364Z,99258.72
2022-11-24T10:50:48.897Z,99257.56
2022-11-24T10:53:24.439Z,99255.91
2022-11-24T10:56:04.958Z,99257.41
2022-11-24T10:58:37.597Z,99261.66
2022-11-24T11:01:20.340Z,99266.94
2022-11-24T11:03:49.531Z,99271.88
2022-11-24T11:06:22.424Z,99274.88
2022-11-24T11:09:11.308Z,99274.69
2022-11-24T11:11:38.738Z,99263.88
2022-11-24T11:14:07.052Z,99265.91
2022-11-24T11:16:35.959Z,99266.41
2022-11-24T11:19:20.209Z,99267.06
2022-11-24T11:22:00.853Z,99263.91
2022-11-24T11:24:29.324Z,99271.22
2022-11-24T11:26:59.982Z,99272.91
2022-11-24T11:35:06.301Z,99274.28
2022-11-24T11:37:33.768Z,99275.75
2022-11-24T11:40:02.025Z,99282.69
2022-11-24T11:43:01.391Z,99282.84
2022-11-24T11:45:28.248Z,99282.44
2022-11-24T11:48:03.613Z,99285.38
2022-11-24T11:51:06.691Z,99291.22
2022-11-24T11:53:33.287Z,99291.84
2022-11-24T11:56:11.834Z,99291.38
2022-11-24T11:59:13.264Z,99292.50
2022-11-24T12:01:56.277Z,99297.44
2022-11-24T12:04:36.971Z,99295.84
2022-11-24T12:07:34.668Z,99290.97
2022-11-24T12:10:10.457Z,99292.34
2022-11-24T12:12:55.476Z,99288.69
2022-11-24T12:15:30.986Z,99284.13
2022-11-24T12:18:21.660Z,99293.09
2022-11-24T12:21:03.723Z,99289.66
2022-11-24T12:23:41.480Z,99291.50
2022-11-24T12:26:17.779Z,99296.53
2022-11-24T12:28:54.159Z,99295.50
2022-11-24T12:31:29.889Z,99293.09
2022-11-24T12:34:18.156Z,99289.63
2022-11-24T12:37:04.114Z,99298.66
2022-11-24T12:39:35.759Z,99299.41
2022-11-24T12:42:10.620Z,99291.72
2022-11-24T12:44:53.896Z,99295.97
2022-11-24T12:47:27.614Z,99297.50
2022-11-24T12:50:03.413Z,99300.63
2022-11-24T12:52:34.203Z,99288.84
2022-11-24T12:55:02.336Z,99289.94
2022-11-24T12:57:36.099Z,99287.41
2022-11-24T13:00:07.222Z,99281.63
2022-11-24T13:02:50.186Z,99291.72
2022-11-24T13:05:25.376Z,99284.03
2022-11-24T13:07:56.752Z,99294.66
2022-11-24T13:13:15.687Z,99280.84
2022-11-24T13:19:08.193Z,99296.50
2022-11-24T13:21:47.941Z,99301.25
2022-11-24T13:24:24.449Z,99296.03
2022-11-24T13:26:53.555Z,99304.88
2022-11-24T13:29:38.710Z,99305.38
2022-11-24T13:32:42.036Z,99315.06
2022-11-24T13:35:15.355Z,99313.00
2022-11-24T13:37:49.938Z,99309.28
2022-11-24T13:40:45.937Z,99312.78
2022-11-24T13:43:22.747Z,99316.38
2022-11-24T13:45:51.728Z,99323.66
2022-11-24T13:48:52.734Z,99322.09
2022-11-24T13:51:24.678Z,99323.13
2022-11-24T13:53:53.417Z,99329.00
2022-11-24T13:56:23.943Z,99326.69
2022-11-24T13:58:53.503Z,99319.59
2022-11-24T14:01:25.376Z,99325.81
2022-11-24T14:04:33.358Z,99322.53
2022-11-24T14:07:09.746Z,99295.50
2022-11-24T14:09:50.980Z,99313.84
2022-11-24T14:12:19.499Z,99328.88
2022-11-24T14:14:47.643Z,99329.88
2022-11-24T14:17:20.556Z,99323.19
2022-11-24T14:19:48.646Z,99321.25
2022-11-24T14:22:19.165Z,99317.78
2022-11-24T14:24:54.089Z,99327.59
2022-11-24T14:27:34.468Z,99320.78
2022-11-24T14:30:02.169Z,99320.53
2022-11-24T14:32:29.169Z,99321.06
2022-11-24T14:34:56.011Z,99326.28
2022-11-24T14:37:23.954Z,99330.28
2022-11-24T14:39:50.514Z,99329.75
2022-11-24T14:42:20.063Z,99329.03
2022-11-24T14:44:50.273Z,99308.06
2022-11-24T14:47:27.161Z,99319.72
2022-11-24T14:49:58.383Z,99319.22
2022-11-24T14:52:26.626Z,99317.59
2022-11-24T14:58:01.546Z,99316.47
2022-11-24T15:00:30.670Z,99314.34
2022-11-24T15:03:19.381Z,99312.81
2022-11-24T15:05:54.942Z,99310.59
2022-11-24T15:08:23.141Z,99310.16
2022-11-24T15:10:56.687Z,99318.72
2022-11-24T15:13:25.535Z,99321.88
2022-11-24T15:16:02.456Z,99333.03
2022-11-24T15:18:36.392Z,99337.56
2022-11-24T15:21:03.427Z,99337.53
2022-11-24T15:23:32.477Z,99337.94
2022-11-24T15:26:29.025Z,99333.38
2022-11-24T15:28:59.377Z,99332.09
2022-11-24T15:31:25.908Z,99344.09
2022-11-24T15:33:52.515Z,99347.03
2022-11-24T15:36:18.997Z,99345.22
2022-11-24T15:38:45.462Z,99340.03
2022-11-24T15:41:20.214Z,99342.00
2022-11-24T15:43:47.246Z,99343.53
2022-11-24T15:46:15.207Z,99352.56
2022-11-24T15:48:49.986Z,99329.72
2022-11-24T15:51:16.561Z,99343.88
2022-11-24T15:53:49.519Z,99345.19
2022-11-24T15:56:26.343Z,99353.00
2022-11-24T15:58:55.402Z,99348.78
2022-11-24T16:01:42.037Z,99356.59
2022-11-24T16:04:08.769Z,99363.25
2022-11-24T16:06:36.808Z,99362.16
2022-11-24T16:12:40.739Z,99357.56
2022-11-24T16:15:08.146Z,99369.44
2022-11-24T16:17:36.113Z,99362.59
2022-11-24T16:20:02.766Z,99360.44
2022-11-24T16:22:29.362Z,99363.88
2022-11-24T16:25:29.159Z,99370.66
2022-11-24T16:27:55.736Z,99371.06
2022-11-24T16:30:22.293Z,99373.59
2022-11-24T16:32:50.111Z,99375.72
2022-11-24T16:35:17.052Z,99374.63
2022-11-24T16:37:43.514Z,99374.41
2022-11-24T16:40:10.821Z,99373.38
2022-11-24T16:42:37.391Z,99366.63
2022-11-24T16:45:04.412Z,99374.84
2022-11-24T16:47:38.420Z,99380.94
2022-11-24T16:50:07.923Z,99379.59
2022-11-24T16:52:34.541Z,99378.97
2022-11-24T16:55:01.034Z,99381.63
2022-11-24T16:57:27.596Z,99378.81
2022-11-24T16:59:54.118Z,99384.97
2022-11-24T17:02:20.684Z,99378.16
2022-11-24T17:04:47.242Z,99379.69
2022-11-24T17:07:15.135Z,99383.44
2022-11-24T17:09:41.648Z,99389.41
2022-11-24T17:12:08.302Z,99382.59
2022-11-24T17:14:35.149Z,99383.56
2022-11-24T17:17:01.998Z,99378.81
2022-11-24T17:19:29.538Z,99380.53
2022-11-24T17:21:56.024Z,99388.03
2022-11-24T17:24:23.884Z,99387.88
2022-11-24T17:26:50.801Z,99388.38
2022-11-24T17:29:17.482Z,99385.63
2022-11-24T17:31:45.605Z,99386.66
2022-11-24T17:34:12.655Z,99397.44
2022-11-24T17:36:39.167Z,99404.03
2022-11-24T17:39:10.738Z,99395.66
2022-11-24T17:41:40.660Z,99399.38
2022-11-24T17:44:09.915Z,99404.50
2022-11-24T17:46:36.581Z,99399.94
2022-11-24T17:49:03.313Z,99405.09
2022-11-24T17:51:29.860Z,99405.63
2022-11-24T17:53:56.340Z,99400.91
2022-11-24T17:56:24.745Z,99409.13
2022-11-24T17:58:53.710Z,99397.97
2022-11-24T18:01:20.964Z,99398.63
2022-11-24T18:03:50.522Z,99406.56
2022-11-24T18:06:20.185Z,99413.66
2022-11-24T18:08:47.332Z,99413.22
2022-11-24T18:11:15.770Z,99408.97
2022-11-24T18:13:58.464Z,99409.25
2022-11-24T18:16:28.483Z,99420.97
2022-11-24T18:19:07.692Z,99419.63
2022-11-24T18:21:35.864Z,99425.69
2022-11-24T18:24:02.354Z,99421.44
2022-11-24T18:26:28.860Z,99424.34
2022-11-24T18:28:55.410Z,99412.75
2022-11-24T18:31:21.961Z,99414.75
2022-11-24T18:33:49.802Z,99412.44
2022-11-24T18:36:18.521Z,99417.47
2022-11-24T18:38:45.321Z,99422.84
2022-11-24T18:41:24.724Z,99424.59
2022-11-24T18:47:50.897Z,99419.75
2022-11-24T18:50:18.962Z,99420.53
2022-11-24T18:52:45.785Z,99422.59
2022-11-24T18:55:12.374Z,99420.94
2022-11-24T18:57:39.030Z,99404.66
2022-11-24T19:00:10.927Z,99415.78
2022-11-24T19:02:37.662Z,99422.00
2022-11-24T19:05:38.732Z,99422.88
2022-11-24T19:11:50.350Z,99423.56
2022-11-24T19:17:58.185Z,99395.47
2022-11-24T19:20:24.710Z,99399.72
2022-11-24T19:22:52.648Z,99398.19
2022-11-24T19:25:20.324Z,99394.88
2022-11-24T19:27:47.226Z,99406.13
2022-11-24T19:33:44.385Z,99383.63
2022-11-24T19:36:13.947Z,99398.75
2022-11-24T19:38:42.898Z,99403.88
2022-11-24T19:41:11.589Z,99391.69
2022-11-24T19:43:39.125Z,99398.19
2022-11-24T19:46:10.226Z,99412.88
2022-11-24T19:48:38.071Z,99409.22
2022-11-24T19:51:09.971Z,99403.28
2022-11-24T19:53:39.394Z,99413.28
2022-11-24T19:56:08.706Z,99409.22
2022-11-24T19:58:37.094Z,99398.63
2022-11-24T20:01:07.625Z,99401.94
2022-11-24T20:03:34.887Z,99410.84
2022-11-24T20:06:04.812Z,99400.81
2022-11-24T20:08:34.610Z,99400.69
2022-11-24T20:11:06.672Z,99399.88
2022-11-24T20:13:36.561Z,99398.94
2022-11-24T20:16:04.234Z,99399.34
2022-11-24T20:18:44.068Z,99387.22
2022-11-24T20:21:18.900Z,99384.97
2022-11-24T20:24:04.770Z,99394.84
2022-11-24T20:26:58.110Z,99400.06
2022-11-24T20:29:31.276Z,99391.78
2022-11-24T20:32:20.548Z,99394.94
2022-11-24T20:34:47.274Z,99409.56
2022-11-24T20:37:15.914Z,99405.00
2022-11-24T20:39:42.425Z,99419.44
2022-11-24T20:42:08.889Z,99413.59
2022-11-24T20:44:37.037Z,99415.00
2022-11-24T20:47:03.804Z,99411.03
2022-11-24T20:49:30.333Z,99412.75
2022-11-24T20:51:56.927Z,99410.88
2022-11-24T20:54:23.759Z,99408.09
2022-11-24T20:56:50.256Z,99415.44
2022-11-24T20:59:20.219Z,99405.47
2022-11-24T21:01:49.240Z,99400.44
2022-11-24T21:04:18.732Z,99412.31
2022-11-24T21:06:45.274Z,99414.28
2022-11-24T21:09:11.812Z,99411.97
2022-11-24T21:11:38.973Z,99407.44
2022-11-24T21:14:06.780Z,99410.88
2022-11-24T21:16:34.868Z,99401.91
2022-11-24T21:19:04.721Z,99409.66
2022-11-24T21:21:33.766Z,99418.16
2022-11-24T21:24:00.473Z,99415.56
2022-11-24T21:26:27.002Z,99407.25
2022-11-24T21:28:53.539Z,99408.69
2022-11-24T21:31:21.232Z,99410.41
2022-11-24T21:33:49.802Z,99405.66
2022-11-24T21:36:20.543Z,99399.81
2022-11-24T21:38:50.454Z,99398.31
2022-11-24T21:41:17.428Z,99407.06
2022-11-24T21:43:43.960Z,99412.66
2022-11-24T21:46:11.247Z,99406.94
2022-11-24T21:48:39.246Z,99399.00
2022-11-24T21:51:07.678Z,99392.53
2022-11-24T21:53:37.272Z,99394.97
2022-11-24T21:56:05.733Z,99390.91
2022-11-24T21:58:33.551Z,99391.38
2022-11-24T22:01:04.642Z,99376.28
2022-11-24T22:03:31.228Z,99372.78
2022-11-24T22:05:59.229Z,99377.13
2022-11-24T22:08:28.030Z,99384.28
2022-11-24T22:11:00.518Z,99390.78
2022-11-24T22:13:27.729Z,99384.78
2022-11-24T22:16:00.153Z,99383.59
2022-11-24T22:18:29.167Z,99379.16
2022-11-24T22:20:55.802Z,99378.72
2022-11-24T22:23:22.294Z,99385.34
2022-11-24T22:25:48.846Z,99387.69
2022-11-24T22:28:16.684Z,99376.34
2022-11-24T22:30:43.925Z,99378.66
2022-11-24T22:33:10.426Z,99374.34
2022-11-24T22:35:36.872Z,99370.50
2022-11-24T22:38:03.341Z,99362.56
2022-11-24T22:40:29.869Z,99358.09
2022-11-24T22:42:57.827Z,99356.81
2022-11-24T22:45:25.691Z,99356.38
2022-11-24T22:47:53.815Z,99359.84
2022-11-24T22:50:20.885Z,99355.09
2022-11-24T22:52:49.419Z,99357.72
2022-11-24T22:55:16.113Z,99355.56
2022-11-24T22:57:47.447Z,99359.34
2022-11-24T23:00:15.925Z,99353.91
2022-11-24T23:02:43.819Z,99356.88
2022-11-24T23:05:10.458Z,99351.72
2022-11-24T23:07:39.193Z,99351.25
2022-11-24T23:10:07.010Z,99345.56
2022-11-24T23:12:33.506Z,99356.78
2022-11-24T23:14:59.961Z,99356.78
2022-11-24T23:17:26.498Z,99347.66
2022-11-24T23:19:54.358Z,99361.34
2022-11-24T23:22:20.843Z,99351.94
2022-11-24T23:24:47.347Z,99350.06
2022-11-24T23:27:14.310Z,99346.50
2022-11-24T23:29:40.842Z,99349.00
2022-11-24T23:32:07.314Z,99353.53
2022-11-24T23:34:34.071Z,99349.81
2022-11-24T23:37:02.141Z,99339.22
2022-11-24T23:39:28.606Z,99346.75
2022-11-24T23:41:55.150Z,99345.06
2022-11-24T23:44:21.609Z,99344.22
2022-11-24T23:46:48.083Z,99344.13
2022-11-24T23:49:14.548Z,99333.53
2022-11-24T23:51:41.057Z,99329.53
2022-11-24T23:54:09.275Z,99327.09
2022-11-24T23:56:35.743Z,99321.50
2022-11-24T23:59:03.785Z,99321.78
